sensor_id;sensor_type;location;lat;lon;timestamp;temperature;humidity
71039;SHT30;58692;43.212;27.908;2023-04-09T00:02:21;8.96;82.20
71039;SHT30;58692;43.212;27.908;2023-04-09T00:04:47;9.02;82.08
71039;SHT30;58692;43.212;27.908;2023-04-09T00:07:12;9.07;82.15
71039;SHT30;58692;43.212;27.908;2023-04-09T00:09:38;9.12;82.00
71039;SHT30;58692;43.212;27.908;2023-04-09T00:12:03;9.16;82.08
71039;SHT30;58692;43.212;27.908;2023-04-09T00:14:29;9.20;81.90
71039;SHT30;58692;43.212;27.908;2023-04-09T00:16:54;9.23;82.33
71039;SHT30;58692;43.212;27.908;2023-04-09T00:19:20;9.26;82.65
71039;SHT30;58692;43.212;27.908;2023-04-09T00:21:46;9.34;82.53
71039;SHT30;58692;43.212;27.908;2023-04-09T00:24:12;9.37;82.49
71039;SHT30;58692;43.212;27.908;2023-04-09T00:26:38;9.37;82.43
71039;SHT30;58692;43.212;27.908;2023-04-09T00:29:04;9.40;82.53
71039;SHT30;58692;43.212;27.908;2023-04-09T00:31:29;9.40;82.44
71039;SHT30;58692;43.212;27.908;2023-04-09T00:33:55;9.46;82.22
71039;SHT30;58692;43.212;27.908;2023-04-09T00:36:20;9.50;82.13
71039;SHT30;58692;43.212;27.908;2023-04-09T00:38:46;9.46;82.39
71039;SHT30;58692;43.212;27.908;2023-04-09T00:41:12;9.46;82.30
71039;SHT30;58692;43.212;27.908;2023-04-09T00:43:38;9.47;82.19
71039;SHT30;58692;43.212;27.908;2023-04-09T00:46:04;9.44;82.36
71039;SHT30;58692;43.212;27.908;2023-04-09T00:48:30;9.44;82.31
71039;SHT30;58692;43.212;27.908;2023-04-09T00:50:56;9.50;82.17
71039;SHT30;58692;43.212;27.908;2023-04-09T00:53:21;9.37;82.33
71039;SHT30;58692;43.212;27.908;2023-04-09T00:55:47;9.31;82.34
71039;SHT30;58692;43.212;27.908;2023-04-09T00:58:13;9.09;83.00
71039;SHT30;58692;43.212;27.908;2023-04-09T01:00:39;9.02;83.13
71039;SHT30;58692;43.212;27.908;2023-04-09T01:03:05;9.10;83.03
71039;SHT30;58692;43.212;27.908;2023-04-09T01:05:40;9.13;83.15
71039;SHT30;58692;43.212;27.908;2023-04-09T01:08:13;9.05;83.19
71039;SHT30;58692;43.212;27.908;2023-04-09T01:10:52;8.92;84.10
71039;SHT30;58692;43.212;27.908;2023-04-09T01:13:38;8.90;84.04
71039;SHT30;58692;43.212;27.908;2023-04-09T01:16:04;8.93;84.15
71039;SHT30;58692;43.212;27.908;2023-04-09T01:18:50;8.88;84.59
71039;SHT30;58692;43.212;27.908;2023-04-09T01:21:19;8.90;84.32
71039;SHT30;58692;43.212;27.908;2023-04-09T01:29:24;8.99;83.91
71039;SHT30;58692;43.212;27.908;2023-04-09T01:31:51;8.99;84.05
71039;SHT30;58692;43.212;27.908;2023-04-09T01:34:17;9.05;83.82
71039;SHT30;58692;43.212;27.908;2023-04-09T01:36:49;9.07;83.91
71039;SHT30;58692;43.212;27.908;2023-04-09T01:39:16;9.07;83.94
71039;SHT30;58692;43.212;27.908;2023-04-09T01:41:42;8.95;84.80
71039;SHT30;58692;43.212;27.908;2023-04-09T01:44:08;9.00;84.69
71039;SHT30;58692;43.212;27.908;2023-04-09T01:46:35;9.07;84.52
71039;SHT30;58692;43.212;27.908;2023-04-09T01:49:02;9.05;84.76
71039;SHT30;58692;43.212;27.908;2023-04-09T01:51:28;8.92;85.22
71039;SHT30;58692;43.212;27.908;2023-04-09T01:53:56;9.03;85.21
71039;SHT30;58692;43.212;27.908;2023-04-09T01:56:22;9.10;85.14
71039;SHT30;58692;43.212;27.908;2023-04-09T01:58:47;9.06;85.17
71039;SHT30;58692;43.212;27.908;2023-04-09T02:01:17;8.92;85.51
71039;SHT30;58692;43.212;27.908;2023-04-09T02:03:49;8.93;85.65
71039;SHT30;58692;43.212;27.908;2023-04-09T02:06:24;8.92;85.82
71039;SHT30;58692;43.212;27.908;2023-04-09T02:08:57;8.99;85.46
71039;SHT30;58692;43.212;27.908;2023-04-09T02:11:25;9.03;85.34
71039;SHT30;58692;43.212;27.908;2023-04-09T02:13:53;9.02;85.27
71039;SHT30;58692;43.212;27.908;2023-04-09T02:16:20;9.02;85.15
71039;SHT30;58692;43.212;27.908;2023-04-09T02:18:46;9.00;85.07
71039;SHT30;58692;43.212;27.908;2023-04-09T02:21:11;9.00;85.00
71039;SHT30;58692;43.212;27.908;2023-04-09T02:23:38;8.96;85.03
71039;SHT30;58692;43.212;27.908;2023-04-09T02:26:03;8.99;85.07
71039;SHT30;58692;43.212;27.908;2023-04-09T02:28:29;8.96;85.19
71039;SHT30;58692;43.212;27.908;2023-04-09T02:30:54;8.95;84.99
71039;SHT30;58692;43.212;27.908;2023-04-09T02:33:20;8.89;84.98
71039;SHT30;58692;43.212;27.908;2023-04-09T02:35:45;8.90;84.95
71039;SHT30;58692;43.212;27.908;2023-04-09T02:38:11;8.86;84.95
71039;SHT30;58692;43.212;27.908;2023-04-09T02:40:40;8.86;84.95
71039;SHT30;58692;43.212;27.908;2023-04-09T02:43:06;8.89;84.88
71039;SHT30;58692;43.212;27.908;2023-04-09T02:45:31;8.86;84.73
71039;SHT30;58692;43.212;27.908;2023-04-09T02:47:57;8.88;84.70
71039;SHT30;58692;43.212;27.908;2023-04-09T02:50:22;8.89;84.66
71039;SHT30;58692;43.212;27.908;2023-04-09T02:52:48;8.80;84.76
71039;SHT30;58692;43.212;27.908;2023-04-09T02:55:14;8.75;84.96
71039;SHT30;58692;43.212;27.908;2023-04-09T02:57:39;8.62;85.39
71039;SHT30;58692;43.212;27.908;2023-04-09T03:00:06;8.58;85.48
71039;SHT30;58692;43.212;27.908;2023-04-09T03:02:31;8.44;85.80
71039;SHT30;58692;43.212;27.908;2023-04-09T03:04:57;8.51;85.75
71039;SHT30;58692;43.212;27.908;2023-04-09T03:07:22;8.44;85.84
71039;SHT30;58692;43.212;27.908;2023-04-09T03:09:48;8.44;86.04
71039;SHT30;58692;43.212;27.908;2023-04-09T03:12:13;8.40;85.85
71039;SHT30;58692;43.212;27.908;2023-04-09T03:14:39;8.28;86.27
71039;SHT30;58692;43.212;27.908;2023-04-09T03:17:04;8.28;86.24
71039;SHT30;58692;43.212;27.908;2023-04-09T03:19:30;8.21;86.51
71039;SHT30;58692;43.212;27.908;2023-04-09T03:21:55;8.23;86.45
71039;SHT30;58692;43.212;27.908;2023-04-09T03:24:21;8.23;86.66
71039;SHT30;58692;43.212;27.908;2023-04-09T03:26:46;8.24;86.88
71039;SHT30;58692;43.212;27.908;2023-04-09T03:29:12;8.18;86.84
71039;SHT30;58692;43.212;27.908;2023-04-09T03:31:37;8.20;86.79
71039;SHT30;58692;43.212;27.908;2023-04-09T03:34:02;8.17;86.93
71039;SHT30;58692;43.212;27.908;2023-04-09T03:36:28;8.11;87.25
71039;SHT30;58692;43.212;27.908;2023-04-09T03:38:53;8.10;87.02
71039;SHT30;58692;43.212;27.908;2023-04-09T03:41:19;8.04;87.01
71039;SHT30;58692;43.212;27.908;2023-04-09T03:43:45;8.08;87.14
71039;SHT30;58692;43.212;27.908;2023-04-09T03:46:15;8.05;87.13
71039;SHT30;58692;43.212;27.908;2023-04-09T03:48:41;8.05;87.09
71039;SHT30;58692;43.212;27.908;2023-04-09T03:51:11;8.07;87.19
71039;SHT30;58692;43.212;27.908;2023-04-09T03:53:37;8.08;86.97
71039;SHT30;58692;43.212;27.908;2023-04-09T03:56:03;8.01;86.90
71039;SHT30;58692;43.212;27.908;2023-04-09T03:58:28;8.10;86.86
71039;SHT30;58692;43.212;27.908;2023-04-09T04:00:54;8.10;86.76
71039;SHT30;58692;43.212;27.908;2023-04-09T04:03:20;8.15;86.72
71039;SHT30;58692;43.212;27.908;2023-04-09T04:05:45;8.13;86.86
71039;SHT30;58692;43.212;27.908;2023-04-09T04:08:11;8.31;86.25
71039;SHT30;58692;43.212;27.908;2023-04-09T04:10:36;8.48;85.48
71039;SHT30;58692;43.212;27.908;2023-04-09T04:13:02;8.73;84.51
71039;SHT30;58692;43.212;27.908;2023-04-09T04:15:27;8.82;83.78
71039;SHT30;58692;43.212;27.908;2023-04-09T04:17:53;9.13;82.93
71039;SHT30;58692;43.212;27.908;2023-04-09T04:20:19;9.41;81.95
71039;SHT30;58692;43.212;27.908;2023-04-09T04:22:46;9.64;81.10
71039;SHT30;58692;43.212;27.908;2023-04-09T04:25:11;9.80;80.12
71039;SHT30;58692;43.212;27.908;2023-04-09T04:27:40;10.08;79.19
71039;SHT30;58692;43.212;27.908;2023-04-09T04:30:07;10.15;77.11
71039;SHT30;58692;43.212;27.908;2023-04-09T04:32:32;10.26;74.81
71039;SHT30;58692;43.212;27.908;2023-04-09T04:34:58;10.49;73.10
71039;SHT30;58692;43.212;27.908;2023-04-09T04:37:23;10.80;71.87
71039;SHT30;58692;43.212;27.908;2023-04-09T04:39:49;11.23;70.51
71039;SHT30;58692;43.212;27.908;2023-04-09T04:42:14;11.51;69.39
71039;SHT30;58692;43.212;27.908;2023-04-09T04:44:40;11.77;68.36
71039;SHT30;58692;43.212;27.908;2023-04-09T04:47:06;12.12;66.82
71039;SHT30;58692;43.212;27.908;2023-04-09T04:49:31;12.43;66.02
71039;SHT30;58692;43.212;27.908;2023-04-09T04:51:57;12.71;65.09
71039;SHT30;58692;43.212;27.908;2023-04-09T04:54:22;13.05;64.08
71039;SHT30;58692;43.212;27.908;2023-04-09T04:56:48;13.28;63.29
71039;SHT30;58692;43.212;27.908;2023-04-09T04:59:13;13.49;62.90
71039;SHT30;58692;43.212;27.908;2023-04-09T05:01:38;13.61;62.26
71039;SHT30;58692;43.212;27.908;2023-04-09T05:04:04;13.61;62.27
71039;SHT30;58692;43.212;27.908;2023-04-09T05:06:29;13.56;61.58
71039;SHT30;58692;43.212;27.908;2023-04-09T05:08:55;13.52;61.95
71039;SHT30;58692;43.212;27.908;2023-04-09T05:11:23;13.45;63.16
71039;SHT30;58692;43.212;27.908;2023-04-09T05:13:49;12.61;66.31
71039;SHT30;58692;43.212;27.908;2023-04-09T05:16:16;13.32;64.69
71039;SHT30;58692;43.212;27.908;2023-04-09T05:18:42;13.44;64.85
71039;SHT30;58692;43.212;27.908;2023-04-09T05:21:08;13.28;65.10
71039;SHT30;58692;43.212;27.908;2023-04-09T05:23:33;13.67;63.77
71039;SHT30;58692;43.212;27.908;2023-04-09T05:25:59;14.06;63.11
71039;SHT30;58692;43.212;27.908;2023-04-09T05:28:24;14.02;63.14
71039;SHT30;58692;43.212;27.908;2023-04-09T05:30:50;14.02;62.96
71039;SHT30;58692;43.212;27.908;2023-04-09T05:33:15;14.23;63.03
71039;SHT30;58692;43.212;27.908;2023-04-09T05:35:41;14.18;63.55
71039;SHT30;58692;43.212;27.908;2023-04-09T05:38:06;14.16;63.92
71039;SHT30;58692;43.212;27.908;2023-04-09T05:40:32;14.41;62.63
71039;SHT30;58692;43.212;27.908;2023-04-09T05:42:57;14.82;61.93
71039;SHT30;58692;43.212;27.908;2023-04-09T05:45:23;14.21;63.47
71039;SHT30;58692;43.212;27.908;2023-04-09T05:47:48;13.49;65.10
71039;SHT30;58692;43.212;27.908;2023-04-09T05:50:14;14.41;63.50
71039;SHT30;58692;43.212;27.908;2023-04-09T05:52:40;13.91;63.37
71039;SHT30;58692;43.212;27.908;2023-04-09T05:55:05;13.91;64.37
71039;SHT30;58692;43.212;27.908;2023-04-09T05:57:32;13.55;64.75
71039;SHT30;58692;43.212;27.908;2023-04-09T05:59:57;13.18;66.13
71039;SHT30;58692;43.212;27.908;2023-04-09T06:02:23;13.11;65.72
71039;SHT30;58692;43.212;27.908;2023-04-09T06:04:49;13.14;66.21
71039;SHT30;58692;43.212;27.908;2023-04-09T06:07:15;13.55;64.30
71039;SHT30;58692;43.212;27.908;2023-04-09T06:09:40;13.77;63.85
71039;SHT30;58692;43.212;27.908;2023-04-09T06:12:08;14.41;62.01
71039;SHT30;58692;43.212;27.908;2023-04-09T06:14:34;14.50;61.42
71039;SHT30;58692;43.212;27.908;2023-04-09T06:17:00;14.71;60.97
71039;SHT30;58692;43.212;27.908;2023-04-09T06:19:25;14.93;60.16
71039;SHT30;58692;43.212;27.908;2023-04-09T06:21:51;14.78;60.00
71039;SHT30;58692;43.212;27.908;2023-04-09T06:24:16;15.06;59.75
71039;SHT30;58692;43.212;27.908;2023-04-09T06:26:42;15.06;60.55
71039;SHT30;58692;43.212;27.908;2023-04-09T06:29:07;14.44;61.99
71039;SHT30;58692;43.212;27.908;2023-04-09T06:31:33;14.96;61.41
71039;SHT30;58692;43.212;27.908;2023-04-09T06:33:58;15.22;61.05
71039;SHT30;58692;43.212;27.908;2023-04-09T06:36:24;15.26;61.57
71039;SHT30;58692;43.212;27.908;2023-04-09T06:38:50;14.75;62.69
71039;SHT30;58692;43.212;27.908;2023-04-09T06:41:19;14.84;61.60
71039;SHT30;58692;43.212;27.908;2023-04-09T06:43:45;15.05;62.05
71039;SHT30;58692;43.212;27.908;2023-04-09T06:46:10;14.33;63.42
71039;SHT30;58692;43.212;27.908;2023-04-09T06:48:37;14.17;64.53
71039;SHT30;58692;43.212;27.908;2023-04-09T06:51:03;14.70;63.62
71039;SHT30;58692;43.212;27.908;2023-04-09T06:53:28;13.93;65.56
71039;SHT30;58692;43.212;27.908;2023-04-09T06:55:54;14.71;63.74
71039;SHT30;58692;43.212;27.908;2023-04-09T06:58:20;14.74;63.08
71039;SHT30;58692;43.212;27.908;2023-04-09T07:00:46;14.89;63.68
71039;SHT30;58692;43.212;27.908;2023-04-09T07:03:11;13.97;66.45
71039;SHT30;58692;43.212;27.908;2023-04-09T07:05:37;14.77;64.62
71039;SHT30;58692;43.212;27.908;2023-04-09T07:08:02;14.27;65.04
71039;SHT30;58692;43.212;27.908;2023-04-09T07:10:28;13.44;67.99
71039;SHT30;58692;43.212;27.908;2023-04-09T07:12:54;13.91;66.72
71039;SHT30;58692;43.212;27.908;2023-04-09T07:15:19;14.28;65.63
71039;SHT30;58692;43.212;27.908;2023-04-09T07:17:44;14.65;65.28
71039;SHT30;58692;43.212;27.908;2023-04-09T07:20:10;14.06;66.41
71039;SHT30;58692;43.212;27.908;2023-04-09T07:22:36;14.72;63.89
71039;SHT30;58692;43.212;27.908;2023-04-09T07:25:01;14.21;64.69
71039;SHT30;58692;43.212;27.908;2023-04-09T07:27:27;15.62;61.48
71039;SHT30;58692;43.212;27.908;2023-04-09T07:29:55;15.82;60.49
71039;SHT30;58692;43.212;27.908;2023-04-09T07:32:22;16.18;60.23
71039;SHT30;58692;43.212;27.908;2023-04-09T07:34:50;16.34;58.91
71039;SHT30;58692;43.212;27.908;2023-04-09T07:37:16;16.61;58.96
71039;SHT30;58692;43.212;27.908;2023-04-09T07:39:41;16.73;58.77
71039;SHT30;58692;43.212;27.908;2023-04-09T07:42:07;15.86;60.87
71039;SHT30;58692;43.212;27.908;2023-04-09T07:44:33;16.14;59.87
71039;SHT30;58692;43.212;27.908;2023-04-09T07:47:01;16.25;59.12
71039;SHT30;58692;43.212;27.908;2023-04-09T07:49:26;15.60;61.25
71039;SHT30;58692;43.212;27.908;2023-04-09T07:51:52;15.73;60.73
71039;SHT30;58692;43.212;27.908;2023-04-09T07:54:17;15.46;61.77
71039;SHT30;58692;43.212;27.908;2023-04-09T07:56:45;15.63;61.40
71039;SHT30;58692;43.212;27.908;2023-04-09T07:59:11;16.01;61.53
71039;SHT30;58692;43.212;27.908;2023-04-09T08:01:37;15.62;60.93
71039;SHT30;58692;43.212;27.908;2023-04-09T08:04:02;16.45;60.06
71039;SHT30;58692;43.212;27.908;2023-04-09T08:06:28;16.41;59.82
71039;SHT30;58692;43.212;27.908;2023-04-09T08:08:53;15.89;61.11
71039;SHT30;58692;43.212;27.908;2023-04-09T08:11:19;15.44;62.62
71039;SHT30;58692;43.212;27.908;2023-04-09T08:13:51;15.83;62.09
71039;SHT30;58692;43.212;27.908;2023-04-09T08:16:17;15.50;62.14
71039;SHT30;58692;43.212;27.908;2023-04-09T08:18:42;15.43;63.07
71039;SHT30;58692;43.212;27.908;2023-04-09T08:21:08;15.44;62.50
71039;SHT30;58692;43.212;27.908;2023-04-09T08:23:33;15.29;63.82
71039;SHT30;58692;43.212;27.908;2023-04-09T08:25:59;15.12;63.39
71039;SHT30;58692;43.212;27.908;2023-04-09T08:28:24;14.42;65.79
71039;SHT30;58692;43.212;27.908;2023-04-09T08:30:50;14.58;64.89
71039;SHT30;58692;43.212;27.908;2023-04-09T08:33:16;14.91;64.30
71039;SHT30;58692;43.212;27.908;2023-04-09T08:35:41;14.13;66.04
71039;SHT30;58692;43.212;27.908;2023-04-09T08:38:07;14.10;66.08
71039;SHT30;58692;43.212;27.908;2023-04-09T08:40:34;14.64;64.49
71039;SHT30;58692;43.212;27.908;2023-04-09T08:43:03;15.39;63.08
71039;SHT30;58692;43.212;27.908;2023-04-09T08:45:29;15.13;63.25
71039;SHT30;58692;43.212;27.908;2023-04-09T08:47:55;15.60;61.34
71039;SHT30;58692;43.212;27.908;2023-04-09T08:50:24;15.29;62.47
71039;SHT30;58692;43.212;27.908;2023-04-09T08:52:50;15.40;62.26
71039;SHT30;58692;43.212;27.908;2023-04-09T08:55:16;15.87;61.57
71039;SHT30;58692;43.212;27.908;2023-04-09T08:57:41;16.28;59.92
71039;SHT30;58692;43.212;27.908;2023-04-09T09:00:07;16.38;59.78
71039;SHT30;58692;43.212;27.908;2023-04-09T09:02:33;15.89;61.38
71039;SHT30;58692;43.212;27.908;2023-04-09T09:04:59;16.62;60.16
71039;SHT30;58692;43.212;27.908;2023-04-09T09:07:27;16.07;61.30
71039;SHT30;58692;43.212;27.908;2023-04-09T09:09:55;16.76;59.46
71039;SHT30;58692;43.212;27.908;2023-04-09T09:12:34;15.89;60.25
71039;SHT30;58692;43.212;27.908;2023-04-09T09:15:00;15.86;61.21
71039;SHT30;58692;43.212;27.908;2023-04-09T09:17:26;16.07;60.66
71039;SHT30;58692;43.212;27.908;2023-04-09T09:19:52;16.15;60.69
71039;SHT30;58692;43.212;27.908;2023-04-09T09:22:17;16.88;58.06
71039;SHT30;58692;43.212;27.908;2023-04-09T09:24:47;16.28;59.88
71039;SHT30;58692;43.212;27.908;2023-04-09T09:27:30;17.00;58.45
71039;SHT30;58692;43.212;27.908;2023-04-09T09:29:57;16.71;58.29
71039;SHT30;58692;43.212;27.908;2023-04-09T09:32:23;16.86;58.05
71039;SHT30;58692;43.212;27.908;2023-04-09T09:35:05;18.18;55.77
71039;SHT30;58692;43.212;27.908;2023-04-09T09:37:31;17.26;56.39
71039;SHT30;58692;43.212;27.908;2023-04-09T09:39:57;17.97;55.69
71039;SHT30;58692;43.212;27.908;2023-04-09T09:42:23;17.24;55.18
71039;SHT30;58692;43.212;27.908;2023-04-09T09:44:49;16.72;56.87
71039;SHT30;58692;43.212;27.908;2023-04-09T09:47:17;16.86;56.80
71039;SHT30;58692;43.212;27.908;2023-04-09T09:49:44;16.76;57.13
71039;SHT30;58692;43.212;27.908;2023-04-09T09:52:10;16.82;57.58
71039;SHT30;58692;43.212;27.908;2023-04-09T09:54:46;17.40;55.63
71039;SHT30;58692;43.212;27.908;2023-04-09T09:57:12;17.05;56.91
71039;SHT30;58692;43.212;27.908;2023-04-09T09:59:45;15.96;58.81
71039;SHT30;58692;43.212;27.908;2023-04-09T10:02:18;16.75;57.26
71039;SHT30;58692;43.212;27.908;2023-04-09T10:04:44;16.80;56.06
71039;SHT30;58692;43.212;27.908;2023-04-09T10:07:12;17.06;55.71
71039;SHT30;58692;43.212;27.908;2023-04-09T10:09:40;18.06;54.46
71039;SHT30;58692;43.212;27.908;2023-04-09T10:12:06;17.74;54.49
71039;SHT30;58692;43.212;27.908;2023-04-09T10:14:33;17.20;56.73
71039;SHT30;58692;43.212;27.908;2023-04-09T10:17:00;16.98;55.83
71039;SHT30;58692;43.212;27.908;2023-04-09T10:19:29;16.95;55.94
71039;SHT30;58692;43.212;27.908;2023-04-09T10:22:00;16.89;56.55
71039;SHT30;58692;43.212;27.908;2023-04-09T10:24:29;16.37;57.08
71039;SHT30;58692;43.212;27.908;2023-04-09T10:27:08;16.31;58.43
71039;SHT30;58692;43.212;27.908;2023-04-09T10:29:48;15.73;60.26
71039;SHT30;58692;43.212;27.908;2023-04-09T10:32:18;16.22;60.04
71039;SHT30;58692;43.212;27.908;2023-04-09T10:34:45;17.50;57.14
71039;SHT30;58692;43.212;27.908;2023-04-09T10:37:16;16.83;57.49
71039;SHT30;58692;43.212;27.908;2023-04-09T10:39:46;16.55;58.66
71039;SHT30;58692;43.212;27.908;2023-04-09T10:42:18;16.64;59.22
71039;SHT30;58692;43.212;27.908;2023-04-09T10:45:05;17.37;57.56
71039;SHT30;58692;43.212;27.908;2023-04-09T10:47:34;17.17;56.48
71039;SHT30;58692;43.212;27.908;2023-04-09T10:50:20;16.83;57.25
71039;SHT30;58692;43.212;27.908;2023-04-09T10:52:47;16.00;60.92
71039;SHT30;58692;43.212;27.908;2023-04-09T10:55:35;16.85;59.26
71039;SHT30;58692;43.212;27.908;2023-04-09T10:58:04;16.58;59.94
71039;SHT30;58692;43.212;27.908;2023-04-09T11:00:30;17.12;57.46
71039;SHT30;58692;43.212;27.908;2023-04-09T11:03:09;15.66;61.15
71039;SHT30;58692;43.212;27.908;2023-04-09T11:05:38;16.27;60.39
71039;SHT30;58692;43.212;27.908;2023-04-09T11:08:07;16.37;60.35
71039;SHT30;58692;43.212;27.908;2023-04-09T11:10:34;16.21;61.82
71039;SHT30;58692;43.212;27.908;2023-04-09T11:13:00;16.35;61.27
71039;SHT30;58692;43.212;27.908;2023-04-09T11:15:26;15.90;61.08
71039;SHT30;58692;43.212;27.908;2023-04-09T11:17:52;16.08;61.03
71039;SHT30;58692;43.212;27.908;2023-04-09T11:20:20;16.08;59.84
71039;SHT30;58692;43.212;27.908;2023-04-09T11:22:49;16.01;60.14
71039;SHT30;58692;43.212;27.908;2023-04-09T11:27:46;15.29;63.57
71039;SHT30;58692;43.212;27.908;2023-04-09T11:30:11;15.53;63.66
71039;SHT30;58692;43.212;27.908;2023-04-09T11:32:37;15.49;62.08
71039;SHT30;58692;43.212;27.908;2023-04-09T11:35:03;15.52;62.83
71039;SHT30;58692;43.212;27.908;2023-04-09T11:37:29;15.36;62.27
71039;SHT30;58692;43.212;27.908;2023-04-09T11:39:54;16.25;60.40
71039;SHT30;58692;43.212;27.908;2023-04-09T11:42:21;15.97;58.34
71039;SHT30;58692;43.212;27.908;2023-04-09T11:44:48;15.40;58.76
71039;SHT30;58692;43.212;27.908;2023-04-09T11:47:14;15.83;59.01
71039;SHT30;58692;43.212;27.908;2023-04-09T11:49:41;15.90;59.57
71039;SHT30;58692;43.212;27.908;2023-04-09T11:52:08;15.98;59.75
71039;SHT30;58692;43.212;27.908;2023-04-09T11:54:34;17.17;58.08
71039;SHT30;58692;43.212;27.908;2023-04-09T11:57:02;17.63;56.86
71039;SHT30;58692;43.212;27.908;2023-04-09T11:59:28;16.52;58.65
71039;SHT30;58692;43.212;27.908;2023-04-09T12:01:56;15.82;59.91
71039;SHT30;58692;43.212;27.908;2023-04-09T12:04:22;16.17;60.80
71039;SHT30;58692;43.212;27.908;2023-04-09T12:06:48;16.32;61.36
71039;SHT30;58692;43.212;27.908;2023-04-09T12:09:14;16.24;61.08
71039;SHT30;58692;43.212;27.908;2023-04-09T12:11:42;16.27;61.26
71039;SHT30;58692;43.212;27.908;2023-04-09T12:14:16;16.20;60.41
71039;SHT30;58692;43.212;27.908;2023-04-09T12:16:42;16.42;60.73
71039;SHT30;58692;43.212;27.908;2023-04-09T12:19:10;15.76;61.91
71039;SHT30;58692;43.212;27.908;2023-04-09T12:21:51;15.09;63.82
71039;SHT30;58692;43.212;27.908;2023-04-09T12:24:21;14.88;63.32
71039;SHT30;58692;43.212;27.908;2023-04-09T12:26:48;14.44;65.48
71039;SHT30;58692;43.212;27.908;2023-04-09T12:29:15;14.89;64.60
71039;SHT30;58692;43.212;27.908;2023-04-09T12:31:41;14.75;64.93
71039;SHT30;58692;43.212;27.908;2023-04-09T12:34:07;14.13;66.15
71039;SHT30;58692;43.212;27.908;2023-04-09T12:36:33;13.76;67.53
71039;SHT30;58692;43.212;27.908;2023-04-09T12:38:59;13.32;68.11
71039;SHT30;58692;43.212;27.908;2023-04-09T12:41:26;13.00;70.59
71039;SHT30;58692;43.212;27.908;2023-04-09T12:43:51;12.95;70.08
71039;SHT30;58692;43.212;27.908;2023-04-09T12:46:18;12.88;70.21
71039;SHT30;58692;43.212;27.908;2023-04-09T12:48:44;12.80;70.33
71039;SHT30;58692;43.212;27.908;2023-04-09T12:51:11;12.88;70.06
71039;SHT30;58692;43.212;27.908;2023-04-09T12:53:36;12.70;69.48
71039;SHT30;58692;43.212;27.908;2023-04-09T12:56:02;12.85;69.87
71039;SHT30;58692;43.212;27.908;2023-04-09T12:58:28;12.81;69.77
71039;SHT30;58692;43.212;27.908;2023-04-09T13:00:53;12.79;70.02
71039;SHT30;58692;43.212;27.908;2023-04-09T13:03:21;12.68;68.87
71039;SHT30;58692;43.212;27.908;2023-04-09T13:05:47;12.68;69.53
71039;SHT30;58692;43.212;27.908;2023-04-09T13:08:13;12.37;71.15
71039;SHT30;58692;43.212;27.908;2023-04-09T13:10:38;12.65;70.72
71039;SHT30;58692;43.212;27.908;2023-04-09T13:13:04;12.65;68.97
71039;SHT30;58692;43.212;27.908;2023-04-09T13:15:32;12.30;70.07
71039;SHT30;58692;43.212;27.908;2023-04-09T13:17:57;12.32;71.79
71039;SHT30;58692;43.212;27.908;2023-04-09T13:20:32;12.41;71.34
71039;SHT30;58692;43.212;27.908;2023-04-09T13:22:57;12.59;70.76
71039;SHT30;58692;43.212;27.908;2023-04-09T13:25:23;12.41;70.70
71039;SHT30;58692;43.212;27.908;2023-04-09T13:27:48;12.39;71.31
71039;SHT30;58692;43.212;27.908;2023-04-09T13:30:14;12.34;71.61
71039;SHT30;58692;43.212;27.908;2023-04-09T13:32:40;12.43;71.85
71039;SHT30;58692;43.212;27.908;2023-04-09T13:35:07;12.36;71.93
71039;SHT30;58692;43.212;27.908;2023-04-09T13:37:34;11.90;73.31
71039;SHT30;58692;43.212;27.908;2023-04-09T13:40:00;12.22;72.09
71039;SHT30;58692;43.212;27.908;2023-04-09T13:42:25;12.30;71.59
71039;SHT30;58692;43.212;27.908;2023-04-09T13:44:52;12.59;71.49
71039;SHT30;58692;43.212;27.908;2023-04-09T13:47:18;12.73;70.79
71039;SHT30;58692;43.212;27.908;2023-04-09T13:49:43;12.30;70.87
71039;SHT30;58692;43.212;27.908;2023-04-09T13:52:09;12.23;71.18
71039;SHT30;58692;43.212;27.908;2023-04-09T13:54:35;12.20;72.49
71039;SHT30;58692;43.212;27.908;2023-04-09T13:57:01;12.25;71.69
71039;SHT30;58692;43.212;27.908;2023-04-09T13:59:27;11.88;72.09
71039;SHT30;58692;43.212;27.908;2023-04-09T14:01:53;11.99;72.47
71039;SHT30;58692;43.212;27.908;2023-04-09T14:04:18;11.81;72.69
71039;SHT30;58692;43.212;27.908;2023-04-09T14:06:44;12.00;72.52
71039;SHT30;58692;43.212;27.908;2023-04-09T14:09:10;12.02;72.43
71039;SHT30;58692;43.212;27.908;2023-04-09T14:11:36;11.93;72.97
71039;SHT30;58692;43.212;27.908;2023-04-09T14:14:02;12.06;72.27
71039;SHT30;58692;43.212;27.908;2023-04-09T14:16:28;12.00;72.40
71039;SHT30;58692;43.212;27.908;2023-04-09T14:18:55;12.12;72.09
71039;SHT30;58692;43.212;27.908;2023-04-09T14:21:20;11.83;74.06
71039;SHT30;58692;43.212;27.908;2023-04-09T14:23:46;11.98;73.33
71039;SHT30;58692;43.212;27.908;2023-04-09T14:26:12;11.89;72.62
71039;SHT30;58692;43.212;27.908;2023-04-09T14:28:37;11.95;70.86
71039;SHT30;58692;43.212;27.908;2023-04-09T14:31:03;11.86;70.64
71039;SHT30;58692;43.212;27.908;2023-04-09T14:33:29;11.81;70.22
71039;SHT30;58692;43.212;27.908;2023-04-09T14:35:55;11.82;70.15
71039;SHT30;58692;43.212;27.908;2023-04-09T14:38:21;11.77;69.36
71039;SHT30;58692;43.212;27.908;2023-04-09T14:40:48;11.85;69.15
71039;SHT30;58692;43.212;27.908;2023-04-09T14:43:13;12.03;69.01
71039;SHT30;58692;43.212;27.908;2023-04-09T14:45:40;11.95;69.82
71039;SHT30;58692;43.212;27.908;2023-04-09T14:48:07;11.89;68.71
71039;SHT30;58692;43.212;27.908;2023-04-09T14:50:33;11.90;68.04
71039;SHT30;58692;43.212;27.908;2023-04-09T14:52:59;11.90;66.10
71039;SHT30;58692;43.212;27.908;2023-04-09T14:55:25;11.85;67.28
71039;SHT30;58692;43.212;27.908;2023-04-09T14:57:52;11.74;69.41
71039;SHT30;58692;43.212;27.908;2023-04-09T15:00:17;11.72;69.65
71039;SHT30;58692;43.212;27.908;2023-04-09T15:02:43;11.61;69.60
71039;SHT30;58692;43.212;27.908;2023-04-09T15:05:09;11.75;68.75
71039;SHT30;58692;43.212;27.908;2023-04-09T15:07:34;11.68;69.48
71039;SHT30;58692;43.212;27.908;2023-04-09T15:10:00;11.69;70.10
71039;SHT30;58692;43.212;27.908;2023-04-09T15:12:29;11.75;70.32
71039;SHT30;58692;43.212;27.908;2023-04-09T15:14:55;11.98;68.53
71039;SHT30;58692;43.212;27.908;2023-04-09T15:17:22;11.98;68.17
71039;SHT30;58692;43.212;27.908;2023-04-09T15:19:48;12.15;68.30
71039;SHT30;58692;43.212;27.908;2023-04-09T15:22:13;12.00;68.65
71039;SHT30;58692;43.212;27.908;2023-04-09T15:24:39;12.00;68.60
71039;SHT30;58692;43.212;27.908;2023-04-09T15:27:05;11.93;68.63